CheckWX is a tool to help pilots better visualize weather data.  It is not intended as a substitute for an official pre-flight weather briefing.

00:07:55 UTC

EGSS METAR
London Stansted Airport
London, United Kingdom
Current

18 mins ago

EGSS 052350Z AUTO 22017KT 9999 -RA OVC011 09/08 Q1010
Observed
Dec-5 @ 23:50 UTC
Wind
  • 220° at 17 KTS
Visibility
10,000+ meters
Flight Rules
MVFR
Conditions
Light Rain
Cloud Levels
  • Overcast at 1,100' AGL
Temperature
C / 48°F
Dewpoint
C / 46°F
Humidity
94%
Altimeter
29.82" Hg
Pressure
1009.92 hPa
Previous

48 mins ago

EGSS 052320Z AUTO 23017KT 9999 -RA OVC012 09/08 Q1011
Observed
Dec-5 @ 23:20 UTC
Wind
  • 230° at 17 KTS
Visibility
10,000+ meters
Flight Rules
MVFR
Conditions
Light Rain
Cloud Levels
  • Overcast at 1,200' AGL
Temperature
C / 48°F
Dewpoint
C / 46°F
Humidity
94%
Altimeter
29.85" Hg
Pressure
1010.92 hPa
Previous

1 hour ago

EGSS 052250Z AUTO 23018KT 9999 OVC013 09/07 Q1011
Observed
Dec-5 @ 22:50 UTC
Wind
  • 230° at 18 KTS
Visibility
10,000+ meters
Flight Rules
MVFR
Cloud Levels
  • Overcast at 1,300' AGL
Temperature
C / 48°F
Dewpoint
C / 45°F
Humidity
87%
Altimeter
29.85" Hg
Pressure
1010.92 hPa